Aérodrome :
LOGIN :

S'inscrire | Disclaimer

   EN    FR    IT 

 










Légende :    VFR   VFR Marginal   IFR   IFR Intensif   IFR Très Intensif
Visi : 
Plafond : 
>= 8 km
>= 3000ft
5 à 8 km
1000 à 3000 ft
1500m à 5 km
500 à 1000 ft
800 à 1500m
200 à 500 ft
< 800m
< 200 ft
Symboles :   Orages  Brouillard  Fortes neiges  Fortes précipitations  Vent > 20 kt
SIGMETs :   Divers  Orages  Givrage  Turbulence  Onde Orograph.  Cendres Volcan.







- Altitude de l'aérodrome : 1910 ft
- Code IATA : RDZ
- Voir les cartes d'approche


LFCR - Rodez

DERNIER METAR :
  • 191830Z AUTO 34005KT 9999 SCT039 BKN046 11/08 Q1023 TEMPO SCT025TCU BKN035

METARs EXPIRÉS :
  • 191800Z AUTO 31004KT 9999 SCT031 BKN037 BKN052 10/08 Q1023 TEMPO SCT025TCU BKN035
  • 191730Z AUTO 31006KT CAVOK 12/08 Q1023 TEMPO SCT025TCU BKN035
  • 191700Z AUTO 31009KT CAVOK 13/08 Q1022 TEMPO 4000 -SHRA BKN003 SCT013TCU
  • 191630Z AUTO 32011KT CAVOK 13/08 Q1022 TEMPO 4000 -SHRA BKN003 SCT013TCU
  • 191600Z AUTO 32012KT CAVOK 13/07 Q1022 TEMPO 4000 -SHRA BKN003 SCT013TCU

TAF TAF LFCR
Valide du 19 à 18h jusqu'au 20 à 18h UTC


191700Z 1918/2018 32005KT CAVOK
PROB30
TEMPO 1918/1921 -SHRA SCT025TCU BKN035
BECMG 2000/2002 VRB02KT
TEMPO 2000/2008 3000 BR
PROB30
TEMPO 2003/2007 0300 FG VV///
BECMG 2009/2011 34005KT
Pas de NOTAMs connus pour ce terrain.



MET'MAP, la Météo Aéronautique d'un coup d'oeil ! - Copyright ORBIFLY Décembre 2007 - Disclaimer

ORBIFLY MET'MAP TEAM :

Programmation & Développement : Alexandra Zaïnal
Conception & Développement : Baudouin d'Aumeries
Co-Programmation & Développement : Marc-Olivier Méhu
Soutien technique & logistique : Manuel Goepfert

Contact : metmap@orbifly.com




SOURCES & CREDITS :

   NOAA